sensor_id;sensor_type;location;lat;lon;timestamp;P1;durP1;ratioP1;P2;durP2;ratioP2
51525;SDS011;37611;51.794;21.590;2023-04-24T00:02:49;17.00;;;10.20;;
51525;SDS011;37611;51.794;21.590;2023-04-24T00:06:51;14.60;;;10.00;;
51525;SDS011;37611;51.794;21.590;2023-04-24T00:10:58;13.30;;;9.80;;
51525;SDS011;37611;51.794;21.590;2023-04-24T00:15:00;14.90;;;10.20;;
51525;SDS011;37611;51.794;21.590;2023-04-24T00:19:02;12.30;;;9.70;;
51525;SDS011;37611;51.794;21.590;2023-04-24T00:23:03;13.20;;;10.10;;
51525;SDS011;37611;51.794;21.590;2023-04-24T00:27:06;16.00;;;11.50;;
51525;SDS011;37611;51.794;21.590;2023-04-24T00:31:07;16.40;;;11.40;;
51525;SDS011;37611;51.794;21.590;2023-04-24T00:35:10;12.80;;;9.80;;
51525;SDS011;37611;51.794;21.590;2023-04-24T00:39:12;13.60;;;9.70;;
51525;SDS011;37611;51.794;21.590;2023-04-24T00:43:13;13.50;;;9.40;;
51525;SDS011;37611;51.794;21.590;2023-04-24T00:47:15;16.40;;;10.40;;
51525;SDS011;37611;51.794;21.590;2023-04-24T00:51:18;18.60;;;11.60;;
51525;SDS011;37611;51.794;21.590;2023-04-24T00:55:21;20.60;;;11.60;;
51525;SDS011;37611;51.794;21.590;2023-04-24T00:59:23;16.00;;;11.10;;
51525;SDS011;37611;51.794;21.590;2023-04-24T01:03:25;14.40;;;10.60;;
51525;SDS011;37611;51.794;21.590;2023-04-24T01:07:30;14.40;;;10.80;;
51525;SDS011;37611;51.794;21.590;2023-04-24T01:11:32;17.80;;;11.20;;
51525;SDS011;37611;51.794;21.590;2023-04-24T01:15:34;14.10;;;10.30;;
51525;SDS011;37611;51.794;21.590;2023-04-24T01:19:36;12.60;;;9.90;;
51525;SDS011;37611;51.794;21.590;2023-04-24T01:23:39;16.80;;;10.50;;
51525;SDS011;37611;51.794;21.590;2023-04-24T01:27:41;18.40;;;10.40;;
51525;SDS011;37611;51.794;21.590;2023-04-24T01:31:43;12.10;;;10.50;;
51525;SDS011;37611;51.794;21.590;2023-04-24T01:35:45;11.10;;;9.30;;
51525;SDS011;37611;51.794;21.590;2023-04-24T01:39:47;13.00;;;10.00;;
51525;SDS011;37611;51.794;21.590;2023-04-24T01:43:49;14.10;;;10.10;;
51525;SDS011;37611;51.794;21.590;2023-04-24T01:47:51;14.30;;;10.60;;
51525;SDS011;37611;51.794;21.590;2023-04-24T01:51:53;13.70;;;10.80;;
51525;SDS011;37611;51.794;21.590;2023-04-24T01:55:55;13.40;;;10.20;;
51525;SDS011;37611;51.794;21.590;2023-04-24T01:59:57;13.10;;;10.60;;
51525;SDS011;37611;51.794;21.590;2023-04-24T02:03:59;13.60;;;10.70;;
51525;SDS011;37611;51.794;21.590;2023-04-24T02:08:00;17.30;;;10.80;;
51525;SDS011;37611;51.794;21.590;2023-04-24T02:12:02;18.40;;;11.60;;
51525;SDS011;37611;51.794;21.590;2023-04-24T02:16:04;19.10;;;11.30;;
51525;SDS011;37611;51.794;21.590;2023-04-24T02:20:06;16.10;;;11.60;;
51525;SDS011;37611;51.794;21.590;2023-04-24T02:24:09;15.50;;;10.00;;
51525;SDS011;37611;51.794;21.590;2023-04-24T02:28:11;16.90;;;11.40;;
51525;SDS011;37611;51.794;21.590;2023-04-24T02:32:13;15.90;;;10.40;;
51525;SDS011;37611;51.794;21.590;2023-04-24T02:36:16;17.30;;;10.30;;
51525;SDS011;37611;51.794;21.590;2023-04-24T02:40:18;14.70;;;9.70;;
51525;SDS011;37611;51.794;21.590;2023-04-24T02:44:20;14.00;;;9.80;;
51525;SDS011;37611;51.794;21.590;2023-04-24T02:48:23;14.00;;;9.70;;
51525;SDS011;37611;51.794;21.590;2023-04-24T02:52:25;13.30;;;9.90;;
51525;SDS011;37611;51.794;21.590;2023-04-24T02:56:27;16.30;;;10.20;;
51525;SDS011;37611;51.794;21.590;2023-04-24T03:00:28;15.50;;;10.40;;
51525;SDS011;37611;51.794;21.590;2023-04-24T03:04:31;11.60;;;10.20;;
51525;SDS011;37611;51.794;21.590;2023-04-24T03:08:33;12.80;;;9.80;;
51525;SDS011;37611;51.794;21.590;2023-04-24T03:12:35;15.90;;;9.70;;
51525;SDS011;37611;51.794;21.590;2023-04-24T03:16:37;12.10;;;9.40;;
51525;SDS011;37611;51.794;21.590;2023-04-24T03:20:39;13.10;;;9.60;;
51525;SDS011;37611;51.794;21.590;2023-04-24T03:24:41;13.30;;;10.30;;
51525;SDS011;37611;51.794;21.590;2023-04-24T03:28:42;11.50;;;9.20;;
51525;SDS011;37611;51.794;21.590;2023-04-24T03:32:44;13.10;;;9.90;;
51525;SDS011;37611;51.794;21.590;2023-04-24T03:36:46;11.00;;;9.60;;
51525;SDS011;37611;51.794;21.590;2023-04-24T03:40:51;11.10;;;9.60;;
51525;SDS011;37611;51.794;21.590;2023-04-24T03:44:53;13.80;;;9.00;;
51525;SDS011;37611;51.794;21.590;2023-04-24T03:48:55;11.20;;;9.70;;
51525;SDS011;37611;51.794;21.590;2023-04-24T03:52:56;11.30;;;9.80;;
51525;SDS011;37611;51.794;21.590;2023-04-24T03:56:59;12.00;;;10.60;;
51525;SDS011;37611;51.794;21.590;2023-04-24T04:01:01;13.60;;;10.30;;
51525;SDS011;37611;51.794;21.590;2023-04-24T04:05:04;13.50;;;9.10;;
51525;SDS011;37611;51.794;21.590;2023-04-24T04:09:06;12.30;;;9.70;;
51525;SDS011;37611;51.794;21.590;2023-04-24T04:13:08;13.50;;;10.10;;
51525;SDS011;37611;51.794;21.590;2023-04-24T04:17:11;11.40;;;9.10;;
51525;SDS011;37611;51.794;21.590;2023-04-24T04:21:13;12.60;;;8.90;;
51525;SDS011;37611;51.794;21.590;2023-04-24T04:25:14;13.30;;;8.20;;
51525;SDS011;37611;51.794;21.590;2023-04-24T04:29:17;16.80;;;8.70;;
51525;SDS011;37611;51.794;21.590;2023-04-24T04:33:22;13.50;;;8.60;;
51525;SDS011;37611;51.794;21.590;2023-04-24T04:37:24;10.40;;;7.70;;
51525;SDS011;37611;51.794;21.590;2023-04-24T04:41:26;15.40;;;12.90;;
51525;SDS011;37611;51.794;21.590;2023-04-24T04:45:28;12.70;;;8.50;;
51525;SDS011;37611;51.794;21.590;2023-04-24T04:49:30;12.70;;;8.00;;
51525;SDS011;37611;51.794;21.590;2023-04-24T04:53:32;8.60;;;7.70;;
51525;SDS011;37611;51.794;21.590;2023-04-24T04:57:34;9.90;;;7.20;;
51525;SDS011;37611;51.794;21.590;2023-04-24T05:01:35;10.10;;;8.50;;
51525;SDS011;37611;51.794;21.590;2023-04-24T05:05:38;7.70;;;6.60;;
51525;SDS011;37611;51.794;21.590;2023-04-24T05:09:41;8.80;;;7.90;;
51525;SDS011;37611;51.794;21.590;2023-04-24T05:13:43;10.90;;;7.70;;
51525;SDS011;37611;51.794;21.590;2023-04-24T05:17:45;8.30;;;6.70;;
51525;SDS011;37611;51.794;21.590;2023-04-24T05:21:47;8.80;;;6.60;;
51525;SDS011;37611;51.794;21.590;2023-04-24T05:25:49;9.00;;;6.90;;
51525;SDS011;37611;51.794;21.590;2023-04-24T05:29:51;10.60;;;7.30;;
51525;SDS011;37611;51.794;21.590;2023-04-24T05:33:52;9.50;;;7.40;;
51525;SDS011;37611;51.794;21.590;2023-04-24T05:37:54;10.30;;;7.30;;
51525;SDS011;37611;51.794;21.590;2023-04-24T05:41:56;7.80;;;6.80;;
51525;SDS011;37611;51.794;21.590;2023-04-24T05:45:59;12.00;;;8.20;;
51525;SDS011;37611;51.794;21.590;2023-04-24T05:50:01;12.90;;;8.10;;
51525;SDS011;37611;51.794;21.590;2023-04-24T05:54:04;9.10;;;7.60;;
51525;SDS011;37611;51.794;21.590;2023-04-24T05:58:05;8.20;;;6.60;;
51525;SDS011;37611;51.794;21.590;2023-04-24T06:02:07;10.40;;;7.30;;
51525;SDS011;37611;51.794;21.590;2023-04-24T06:06:09;8.30;;;7.40;;
51525;SDS011;37611;51.794;21.590;2023-04-24T06:10:11;10.10;;;7.90;;
51525;SDS011;37611;51.794;21.590;2023-04-24T06:14:12;12.70;;;7.50;;
51525;SDS011;37611;51.794;21.590;2023-04-24T06:18:14;10.60;;;7.40;;
51525;SDS011;37611;51.794;21.590;2023-04-24T06:22:16;9.60;;;7.10;;
51525;SDS011;37611;51.794;21.590;2023-04-24T06:26:18;8.40;;;7.00;;
51525;SDS011;37611;51.794;21.590;2023-04-24T06:30:19;11.80;;;7.70;;
51525;SDS011;37611;51.794;21.590;2023-04-24T06:34:21;11.00;;;7.10;;
51525;SDS011;37611;51.794;21.590;2023-04-24T06:38:23;8.00;;;7.10;;
51525;SDS011;37611;51.794;21.590;2023-04-24T06:42:25;10.10;;;7.90;;
51525;SDS011;37611;51.794;21.590;2023-04-24T06:46:26;9.20;;;7.20;;
51525;SDS011;37611;51.794;21.590;2023-04-24T06:50:29;9.00;;;8.00;;
51525;SDS011;37611;51.794;21.590;2023-04-24T06:54:31;9.20;;;7.20;;
51525;SDS011;37611;51.794;21.590;2023-04-24T06:58:33;8.40;;;7.50;;
51525;SDS011;37611;51.794;21.590;2023-04-24T07:02:35;7.60;;;6.60;;
51525;SDS011;37611;51.794;21.590;2023-04-24T07:06:37;8.20;;;7.30;;
51525;SDS011;37611;51.794;21.590;2023-04-24T07:10:39;11.00;;;7.20;;
51525;SDS011;37611;51.794;21.590;2023-04-24T07:14:41;9.00;;;7.00;;
51525;SDS011;37611;51.794;21.590;2023-04-24T07:18:42;10.10;;;9.10;;
51525;SDS011;37611;51.794;21.590;2023-04-24T07:22:44;9.30;;;7.80;;
51525;SDS011;37611;51.794;21.590;2023-04-24T07:26:46;13.10;;;8.50;;
51525;SDS011;37611;51.794;21.590;2023-04-24T07:30:48;10.90;;;8.30;;
51525;SDS011;37611;51.794;21.590;2023-04-24T07:34:50;9.50;;;7.40;;
51525;SDS011;37611;51.794;21.590;2023-04-24T07:38:52;15.80;;;7.60;;
51525;SDS011;37611;51.794;21.590;2023-04-24T07:42:54;11.20;;;7.70;;
51525;SDS011;37611;51.794;21.590;2023-04-24T07:46:56;12.00;;;7.10;;
51525;SDS011;37611;51.794;21.590;2023-04-24T07:50:58;10.80;;;7.90;;
51525;SDS011;37611;51.794;21.590;2023-04-24T07:55:00;9.10;;;7.00;;
51525;SDS011;37611;51.794;21.590;2023-04-24T07:59:03;9.00;;;7.40;;
51525;SDS011;37611;51.794;21.590;2023-04-24T08:03:05;9.80;;;7.40;;
51525;SDS011;37611;51.794;21.590;2023-04-24T08:07:07;10.00;;;7.40;;
51525;SDS011;37611;51.794;21.590;2023-04-24T08:11:09;9.20;;;7.70;;
51525;SDS011;37611;51.794;21.590;2023-04-24T08:15:10;8.40;;;6.60;;
51525;SDS011;37611;51.794;21.590;2023-04-24T08:19:12;10.00;;;7.10;;
51525;SDS011;37611;51.794;21.590;2023-04-24T08:23:14;9.70;;;7.00;;
51525;SDS011;37611;51.794;21.590;2023-04-24T08:27:16;9.90;;;7.00;;
51525;SDS011;37611;51.794;21.590;2023-04-24T08:31:17;11.50;;;6.60;;
51525;SDS011;37611;51.794;21.590;2023-04-24T08:35:19;7.80;;;6.20;;
51525;SDS011;37611;51.794;21.590;2023-04-24T08:39:21;8.00;;;5.80;;
51525;SDS011;37611;51.794;21.590;2023-04-24T08:43:23;8.60;;;6.10;;
51525;SDS011;37611;51.794;21.590;2023-04-24T08:47:27;9.70;;;6.00;;
51525;SDS011;37611;51.794;21.590;2023-04-24T08:51:30;8.50;;;6.50;;
51525;SDS011;37611;51.794;21.590;2023-04-24T08:55:32;7.30;;;5.90;;
51525;SDS011;37611;51.794;21.590;2023-04-24T08:59:35;7.30;;;6.00;;
51525;SDS011;37611;51.794;21.590;2023-04-24T09:03:37;9.40;;;5.70;;
51525;SDS011;37611;51.794;21.590;2023-04-24T09:07:40;6.30;;;5.20;;
51525;SDS011;37611;51.794;21.590;2023-04-24T09:11:46;7.10;;;6.10;;
51525;SDS011;37611;51.794;21.590;2023-04-24T09:15:50;6.70;;;5.40;;
51525;SDS011;37611;51.794;21.590;2023-04-24T09:19:53;9.30;;;6.20;;
51525;SDS011;37611;51.794;21.590;2023-04-24T09:24:02;6.20;;;5.60;;
51525;SDS011;37611;51.794;21.590;2023-04-24T09:28:06;7.80;;;5.70;;
51525;SDS011;37611;51.794;21.590;2023-04-24T09:32:18;8.70;;;6.50;;
51525;SDS011;37611;51.794;21.590;2023-04-24T09:36:31;10.70;;;6.70;;
51525;SDS011;37611;51.794;21.590;2023-04-24T09:40:38;7.30;;;5.50;;
51525;SDS011;37611;51.794;21.590;2023-04-24T09:44:41;9.30;;;5.90;;
51525;SDS011;37611;51.794;21.590;2023-04-24T09:48:43;10.00;;;6.30;;
51525;SDS011;37611;51.794;21.590;2023-04-24T09:52:46;7.20;;;5.60;;
51525;SDS011;37611;51.794;21.590;2023-04-24T09:56:57;7.20;;;5.10;;
51525;SDS011;37611;51.794;21.590;2023-04-24T10:00:58;14.60;;;8.30;;
51525;SDS011;37611;51.794;21.590;2023-04-24T10:05:00;8.50;;;6.70;;
51525;SDS011;37611;51.794;21.590;2023-04-24T10:09:02;10.10;;;5.50;;
51525;SDS011;37611;51.794;21.590;2023-04-24T10:13:05;9.80;;;6.10;;
51525;SDS011;37611;51.794;21.590;2023-04-24T10:17:08;7.50;;;6.30;;
51525;SDS011;37611;51.794;21.590;2023-04-24T10:21:12;7.70;;;6.30;;
51525;SDS011;37611;51.794;21.590;2023-04-24T10:25:14;8.70;;;6.80;;
51525;SDS011;37611;51.794;21.590;2023-04-24T10:29:18;9.80;;;6.00;;
51525;SDS011;37611;51.794;21.590;2023-04-24T10:33:20;9.50;;;6.50;;
51525;SDS011;37611;51.794;21.590;2023-04-24T10:37:24;12.90;;;6.50;;
51525;SDS011;37611;51.794;21.590;2023-04-24T10:41:27;7.80;;;6.20;;
51525;SDS011;37611;51.794;21.590;2023-04-24T10:45:31;8.30;;;5.90;;
51525;SDS011;37611;51.794;21.590;2023-04-24T10:49:33;6.90;;;5.70;;
51525;SDS011;37611;51.794;21.590;2023-04-24T10:53:35;8.30;;;5.50;;
51525;SDS011;37611;51.794;21.590;2023-04-24T10:57:37;9.60;;;6.00;;
51525;SDS011;37611;51.794;21.590;2023-04-24T11:01:39;10.60;;;6.00;;
51525;SDS011;37611;51.794;21.590;2023-04-24T11:09:59;10.50;;;5.60;;
51525;SDS011;37611;51.794;21.590;2023-04-24T11:14:08;10.90;;;5.70;;
51525;SDS011;37611;51.794;21.590;2023-04-24T11:18:14;9.30;;;5.10;;
51525;SDS011;37611;51.794;21.590;2023-04-24T11:22:17;10.00;;;5.50;;
51525;SDS011;37611;51.794;21.590;2023-04-24T11:26:21;9.50;;;4.90;;
51525;SDS011;37611;51.794;21.590;2023-04-24T11:30:28;5.40;;;4.40;;
51525;SDS011;37611;51.794;21.590;2023-04-24T11:34:31;7.60;;;4.30;;
51525;SDS011;37611;51.794;21.590;2023-04-24T11:38:33;7.20;;;4.50;;
51525;SDS011;37611;51.794;21.590;2023-04-24T11:42:35;5.10;;;4.40;;
51525;SDS011;37611;51.794;21.590;2023-04-24T11:46:42;15.30;;;5.90;;
51525;SDS011;37611;51.794;21.590;2023-04-24T11:50:45;11.30;;;4.60;;
51525;SDS011;37611;51.794;21.590;2023-04-24T11:54:48;7.20;;;4.30;;
51525;SDS011;37611;51.794;21.590;2023-04-24T11:58:52;6.40;;;4.00;;
51525;SDS011;37611;51.794;21.590;2023-04-24T12:07:07;4.30;;;3.90;;
51525;SDS011;37611;51.794;21.590;2023-04-24T12:11:09;5.70;;;4.20;;
51525;SDS011;37611;51.794;21.590;2023-04-24T12:15:12;7.00;;;3.70;;
51525;SDS011;37611;51.794;21.590;2023-04-24T12:19:17;5.70;;;4.20;;
51525;SDS011;37611;51.794;21.590;2023-04-24T12:23:34;5.50;;;4.20;;
51525;SDS011;37611;51.794;21.590;2023-04-24T12:27:39;7.00;;;4.00;;
51525;SDS011;37611;51.794;21.590;2023-04-24T12:31:41;9.00;;;4.50;;
51525;SDS011;37611;51.794;21.590;2023-04-24T12:35:42;8.60;;;4.40;;
51525;SDS011;37611;51.794;21.590;2023-04-24T12:40:06;5.00;;;3.60;;
51525;SDS011;37611;51.794;21.590;2023-04-24T12:44:10;8.60;;;4.20;;
51525;SDS011;37611;51.794;21.590;2023-04-24T12:48:11;8.80;;;4.30;;
51525;SDS011;37611;51.794;21.590;2023-04-24T12:52:15;5.20;;;4.00;;
51525;SDS011;37611;51.794;21.590;2023-04-24T12:56:17;6.80;;;3.90;;
51525;SDS011;37611;51.794;21.590;2023-04-24T13:00:19;8.20;;;4.00;;
51525;SDS011;37611;51.794;21.590;2023-04-24T13:04:21;7.50;;;3.90;;
51525;SDS011;37611;51.794;21.590;2023-04-24T13:08:23;4.70;;;3.60;;
51525;SDS011;37611;51.794;21.590;2023-04-24T13:12:24;6.90;;;3.90;;
51525;SDS011;37611;51.794;21.590;2023-04-24T13:16:27;8.10;;;3.50;;
51525;SDS011;37611;51.794;21.590;2023-04-24T13:20:28;11.80;;;3.90;;
51525;SDS011;37611;51.794;21.590;2023-04-24T13:24:30;7.60;;;3.60;;
51525;SDS011;37611;51.794;21.590;2023-04-24T13:28:33;7.50;;;4.40;;
51525;SDS011;37611;51.794;21.590;2023-04-24T13:32:35;6.20;;;3.10;;
51525;SDS011;37611;51.794;21.590;2023-04-24T13:36:37;9.50;;;3.80;;
51525;SDS011;37611;51.794;21.590;2023-04-24T13:40:38;5.70;;;3.30;;
51525;SDS011;37611;51.794;21.590;2023-04-24T13:44:41;6.30;;;3.40;;
51525;SDS011;37611;51.794;21.590;2023-04-24T13:48:43;4.70;;;3.10;;
51525;SDS011;37611;51.794;21.590;2023-04-24T13:52:44;6.60;;;2.80;;
51525;SDS011;37611;51.794;21.590;2023-04-24T13:56:46;5.70;;;2.90;;
51525;SDS011;37611;51.794;21.590;2023-04-24T14:00:48;6.00;;;3.00;;
51525;SDS011;37611;51.794;21.590;2023-04-24T14:04:50;5.20;;;3.40;;
51525;SDS011;37611;51.794;21.590;2023-04-24T14:08:52;3.60;;;3.10;;
51525;SDS011;37611;51.794;21.590;2023-04-24T14:12:53;8.40;;;3.80;;
51525;SDS011;37611;51.794;21.590;2023-04-24T14:16:56;5.40;;;2.80;;
51525;SDS011;37611;51.794;21.590;2023-04-24T14:20:58;3.50;;;2.80;;
51525;SDS011;37611;51.794;21.590;2023-04-24T14:25:00;4.70;;;3.10;;
51525;SDS011;37611;51.794;21.590;2023-04-24T14:29:02;6.40;;;3.10;;
51525;SDS011;37611;51.794;21.590;2023-04-24T14:33:03;7.00;;;3.40;;
51525;SDS011;37611;51.794;21.590;2023-04-24T14:37:05;6.30;;;3.50;;
51525;SDS011;37611;51.794;21.590;2023-04-24T14:41:07;7.40;;;5.20;;
51525;SDS011;37611;51.794;21.590;2023-04-24T14:45:11;6.60;;;4.70;;
51525;SDS011;37611;51.794;21.590;2023-04-24T14:49:12;6.70;;;3.80;;
51525;SDS011;37611;51.794;21.590;2023-04-24T14:53:14;4.10;;;3.50;;
51525;SDS011;37611;51.794;21.590;2023-04-24T14:57:16;4.00;;;3.00;;
51525;SDS011;37611;51.794;21.590;2023-04-24T15:01:18;4.90;;;2.80;;
51525;SDS011;37611;51.794;21.590;2023-04-24T15:05:19;3.20;;;2.90;;
51525;SDS011;37611;51.794;21.590;2023-04-24T15:09:21;7.50;;;3.60;;
51525;SDS011;37611;51.794;21.590;2023-04-24T15:13:24;4.50;;;3.30;;
51525;SDS011;37611;51.794;21.590;2023-04-24T15:17:26;4.90;;;3.50;;
51525;SDS011;37611;51.794;21.590;2023-04-24T15:21:27;5.60;;;4.60;;
51525;SDS011;37611;51.794;21.590;2023-04-24T15:25:29;6.80;;;3.50;;
51525;SDS011;37611;51.794;21.590;2023-04-24T15:29:31;7.20;;;5.00;;
51525;SDS011;37611;51.794;21.590;2023-04-24T15:33:32;7.10;;;4.90;;
51525;SDS011;37611;51.794;21.590;2023-04-24T15:37:34;5.50;;;3.50;;
51525;SDS011;37611;51.794;21.590;2023-04-24T15:41:36;4.70;;;3.50;;
51525;SDS011;37611;51.794;21.590;2023-04-24T15:45:38;5.40;;;3.30;;
51525;SDS011;37611;51.794;21.590;2023-04-24T15:49:39;6.50;;;3.90;;
51525;SDS011;37611;51.794;21.590;2023-04-24T15:53:41;6.10;;;3.60;;
51525;SDS011;37611;51.794;21.590;2023-04-24T15:57:44;6.70;;;3.60;;
51525;SDS011;37611;51.794;21.590;2023-04-24T16:01:46;6.10;;;3.30;;
51525;SDS011;37611;51.794;21.590;2023-04-24T16:05:47;4.90;;;3.50;;
51525;SDS011;37611;51.794;21.590;2023-04-24T16:09:49;5.60;;;3.20;;
51525;SDS011;37611;51.794;21.590;2023-04-24T16:13:51;5.90;;;4.00;;
51525;SDS011;37611;51.794;21.590;2023-04-24T16:17:52;6.00;;;3.70;;
51525;SDS011;37611;51.794;21.590;2023-04-24T16:21:54;4.90;;;3.70;;
51525;SDS011;37611;51.794;21.590;2023-04-24T16:25:57;5.30;;;3.70;;
51525;SDS011;37611;51.794;21.590;2023-04-24T16:29:59;5.20;;;3.90;;
51525;SDS011;37611;51.794;21.590;2023-04-24T16:34:01;7.50;;;3.90;;
51525;SDS011;37611;51.794;21.590;2023-04-24T16:38:03;8.10;;;4.70;;
51525;SDS011;37611;51.794;21.590;2023-04-24T16:42:05;8.40;;;5.20;;
51525;SDS011;37611;51.794;21.590;2023-04-24T16:46:07;6.30;;;4.20;;
51525;SDS011;37611;51.794;21.590;2023-04-24T16:50:09;7.00;;;4.90;;
51525;SDS011;37611;51.794;21.590;2023-04-24T16:54:11;8.40;;;5.40;;
51525;SDS011;37611;51.794;21.590;2023-04-24T16:58:13;12.70;;;7.40;;
51525;SDS011;37611;51.794;21.590;2023-04-24T17:02:15;15.50;;;8.20;;
51525;SDS011;37611;51.794;21.590;2023-04-24T17:06:16;12.00;;;7.60;;
51525;SDS011;37611;51.794;21.590;2023-04-24T17:10:18;17.90;;;7.90;;
51525;SDS011;37611;51.794;21.590;2023-04-24T17:14:20;5.80;;;5.20;;
51525;SDS011;37611;51.794;21.590;2023-04-24T17:18:23;5.50;;;5.00;;
51525;SDS011;37611;51.794;21.590;2023-04-24T17:22:25;12.60;;;8.50;;
51525;SDS011;37611;51.794;21.590;2023-04-24T17:26:27;29.30;;;19.30;;
51525;SDS011;37611;51.794;21.590;2023-04-24T17:30:29;26.30;;;19.40;;
51525;SDS011;37611;51.794;21.590;2023-04-24T17:34:31;16.80;;;13.00;;
51525;SDS011;37611;51.794;21.590;2023-04-24T17:38:32;17.20;;;7.40;;
51525;SDS011;37611;51.794;21.590;2023-04-24T17:42:34;8.70;;;6.60;;
51525;SDS011;37611;51.794;21.590;2023-04-24T17:46:38;7.10;;;6.10;;
51525;SDS011;37611;51.794;21.590;2023-04-24T17:50:40;9.80;;;6.60;;
51525;SDS011;37611;51.794;21.590;2023-04-24T17:54:42;8.30;;;6.70;;
51525;SDS011;37611;51.794;21.590;2023-04-24T17:58:44;15.60;;;7.90;;
51525;SDS011;37611;51.794;21.590;2023-04-24T18:02:46;19.50;;;11.30;;
51525;SDS011;37611;51.794;21.590;2023-04-24T18:06:50;34.10;;;26.20;;
51525;SDS011;37611;51.794;21.590;2023-04-24T18:10:52;23.80;;;13.10;;
51525;SDS011;37611;51.794;21.590;2023-04-24T18:14:53;10.80;;;7.60;;
51525;SDS011;37611;51.794;21.590;2023-04-24T18:18:56;12.40;;;8.70;;
51525;SDS011;37611;51.794;21.590;2023-04-24T18:22:58;11.60;;;7.30;;
51525;SDS011;37611;51.794;21.590;2023-04-24T18:27:00;8.60;;;5.90;;
51525;SDS011;37611;51.794;21.590;2023-04-24T18:31:02;9.10;;;5.60;;
51525;SDS011;37611;51.794;21.590;2023-04-24T18:35:04;12.00;;;7.80;;
51525;SDS011;37611;51.794;21.590;2023-04-24T18:39:06;6.90;;;5.80;;
51525;SDS011;37611;51.794;21.590;2023-04-24T18:43:08;14.30;;;7.60;;
51525;SDS011;37611;51.794;21.590;2023-04-24T18:47:10;9.10;;;5.60;;
51525;SDS011;37611;51.794;21.590;2023-04-24T18:51:11;12.30;;;6.90;;
51525;SDS011;37611;51.794;21.590;2023-04-24T18:55:14;7.90;;;6.10;;
51525;SDS011;37611;51.794;21.590;2023-04-24T18:59:15;10.40;;;7.40;;
51525;SDS011;37611;51.794;21.590;2023-04-24T19:03:18;15.00;;;8.70;;
51525;SDS011;37611;51.794;21.590;2023-04-24T19:07:20;27.90;;;19.90;;
51525;SDS011;37611;51.794;21.590;2023-04-24T19:11:22;21.60;;;17.70;;
51525;SDS011;37611;51.794;21.590;2023-04-24T19:15:23;11.70;;;10.30;;
51525;SDS011;37611;51.794;21.590;2023-04-24T19:19:26;13.50;;;11.40;;
51525;SDS011;37611;51.794;21.590;2023-04-24T19:23:29;21.10;;;16.10;;
51525;SDS011;37611;51.794;21.590;2023-04-24T19:27:30;25.20;;;17.40;;
51525;SDS011;37611;51.794;21.590;2023-04-24T19:31:32;19.30;;;15.30;;
51525;SDS011;37611;51.794;21.590;2023-04-24T19:35:34;21.30;;;18.60;;
51525;SDS011;37611;51.794;21.590;2023-04-24T19:39:36;21.80;;;17.10;;
51525;SDS011;37611;51.794;21.590;2023-04-24T19:43:38;20.50;;;14.70;;
51525;SDS011;37611;51.794;21.590;2023-04-24T19:47:40;14.30;;;10.40;;
51525;SDS011;37611;51.794;21.590;2023-04-24T19:51:42;15.20;;;10.70;;
51525;SDS011;37611;51.794;21.590;2023-04-24T19:55:43;11.40;;;8.20;;
51525;SDS011;37611;51.794;21.590;2023-04-24T19:59:46;7.00;;;6.30;;
51525;SDS011;37611;51.794;21.590;2023-04-24T20:03:48;11.00;;;7.40;;
51525;SDS011;37611;51.794;21.590;2023-04-24T20:07:50;10.60;;;6.90;;
51525;SDS011;37611;51.794;21.590;2023-04-24T20:11:52;10.90;;;8.30;;
51525;SDS011;37611;51.794;21.590;2023-04-24T20:15:54;11.70;;;7.60;;
51525;SDS011;37611;51.794;21.590;2023-04-24T20:19:56;11.50;;;8.40;;
51525;SDS011;37611;51.794;21.590;2023-04-24T20:23:58;16.40;;;11.10;;
51525;SDS011;37611;51.794;21.590;2023-04-24T20:28:00;12.10;;;9.10;;
51525;SDS011;37611;51.794;21.590;2023-04-24T20:32:02;11.60;;;9.20;;
51525;SDS011;37611;51.794;21.590;2023-04-24T20:36:03;16.90;;;9.50;;
51525;SDS011;37611;51.794;21.590;2023-04-24T20:40:06;12.40;;;9.40;;
51525;SDS011;37611;51.794;21.590;2023-04-24T20:44:08;11.80;;;10.20;;
51525;SDS011;37611;51.794;21.590;2023-04-24T20:48:10;16.20;;;10.10;;
51525;SDS011;37611;51.794;21.590;2023-04-24T20:52:13;14.60;;;11.00;;
51525;SDS011;37611;51.794;21.590;2023-04-24T20:56:15;11.60;;;9.20;;
51525;SDS011;37611;51.794;21.590;2023-04-24T21:00:17;10.80;;;9.30;;
51525;SDS011;37611;51.794;21.590;2023-04-24T21:04:19;11.60;;;9.40;;
51525;SDS011;37611;51.794;21.590;2023-04-24T21:08:21;12.30;;;10.10;;
51525;SDS011;37611;51.794;21.590;2023-04-24T21:12:22;11.10;;;8.70;;
51525;SDS011;37611;51.794;21.590;2023-04-24T21:16:24;11.90;;;8.60;;
51525;SDS011;37611;51.794;21.590;2023-04-24T21:20:26;12.00;;;10.10;;
51525;SDS011;37611;51.794;21.590;2023-04-24T21:24:28;14.90;;;12.20;;
51525;SDS011;37611;51.794;21.590;2023-04-24T21:28:30;14.50;;;10.70;;
51525;SDS011;37611;51.794;21.590;2023-04-24T21:32:32;10.20;;;9.10;;
51525;SDS011;37611;51.794;21.590;2023-04-24T21:36:34;13.50;;;10.00;;
51525;SDS011;37611;51.794;21.590;2023-04-24T21:40:36;12.00;;;10.70;;
51525;SDS011;37611;51.794;21.590;2023-04-24T21:44:37;12.60;;;10.40;;
51525;SDS011;37611;51.794;21.590;2023-04-24T21:48:39;11.20;;;9.80;;
51525;SDS011;37611;51.794;21.590;2023-04-24T21:52:41;13.40;;;11.00;;
51525;SDS011;37611;51.794;21.590;2023-04-24T21:56:43;13.80;;;12.20;;
51525;SDS011;37611;51.794;21.590;2023-04-24T22:00:45;13.70;;;11.50;;
51525;SDS011;37611;51.794;21.590;2023-04-24T22:04:47;13.70;;;10.80;;
51525;SDS011;37611;51.794;21.590;2023-04-24T22:08:50;13.00;;;11.60;;
51525;SDS011;37611;51.794;21.590;2023-04-24T22:12:52;19.80;;;17.20;;
51525;SDS011;37611;51.794;21.590;2023-04-24T22:16:54;16.90;;;13.40;;
51525;SDS011;37611;51.794;21.590;2023-04-24T22:20:58;19.60;;;15.20;;
51525;SDS011;37611;51.794;21.590;2023-04-24T22:25:01;19.40;;;17.00;;
51525;SDS011;37611;51.794;21.590;2023-04-24T22:29:03;12.20;;;10.90;;
51525;SDS011;37611;51.794;21.590;2023-04-24T22:33:05;11.70;;;9.70;;
51525;SDS011;37611;51.794;21.590;2023-04-24T22:37:06;11.00;;;9.90;;
51525;SDS011;37611;51.794;21.590;2023-04-24T22:41:08;12.20;;;10.70;;
51525;SDS011;37611;51.794;21.590;2023-04-24T22:45:10;13.00;;;10.10;;
51525;SDS011;37611;51.794;21.590;2023-04-24T22:49:13;10.40;;;9.40;;
51525;SDS011;37611;51.794;21.590;2023-04-24T22:53:16;11.70;;;9.30;;
51525;SDS011;37611;51.794;21.590;2023-04-24T22:57:18;10.90;;;9.80;;
51525;SDS011;37611;51.794;21.590;2023-04-24T23:01:21;12.70;;;10.20;;
51525;SDS011;37611;51.794;21.590;2023-04-24T23:05:23;11.70;;;9.90;;
51525;SDS011;37611;51.794;21.590;2023-04-24T23:09:25;12.20;;;10.10;;
51525;SDS011;37611;51.794;21.590;2023-04-24T23:13:27;13.70;;;10.80;;
51525;SDS011;37611;51.794;21.590;2023-04-24T23:17:29;14.50;;;10.90;;
51525;SDS011;37611;51.794;21.590;2023-04-24T23:21:34;12.80;;;10.80;;
51525;SDS011;37611;51.794;21.590;2023-04-24T23:25:36;13.40;;;10.40;;
51525;SDS011;37611;51.794;21.590;2023-04-24T23:29:38;11.20;;;10.20;;
51525;SDS011;37611;51.794;21.590;2023-04-24T23:33:40;11.30;;;9.80;;
51525;SDS011;37611;51.794;21.590;2023-04-24T23:37:41;11.50;;;10.40;;
51525;SDS011;37611;51.794;21.590;2023-04-24T23:41:43;11.20;;;9.90;;
51525;SDS011;37611;51.794;21.590;2023-04-24T23:45:45;10.40;;;9.40;;
51525;SDS011;37611;51.794;21.590;2023-04-24T23:49:47;11.20;;;8.90;;